createdAt,value
2018-05-29T00:00:33.419Z,0
2018-05-29T00:01:42.839Z,0
2018-05-29T00:02:51.986Z,0
2018-05-29T00:04:01.154Z,0
2018-05-29T00:05:10.848Z,0
2018-05-29T00:06:20.283Z,0
2018-05-29T00:07:29.696Z,0
2018-05-29T00:08:39.637Z,0
2018-05-29T00:09:48.788Z,0
2018-05-29T00:10:58.194Z,0
2018-05-29T00:12:07.643Z,0
2018-05-29T00:13:16.580Z,0
2018-05-29T00:14:26.003Z,0
2018-05-29T00:15:35.415Z,0
2018-05-29T00:16:44.825Z,0
2018-05-29T00:17:53.988Z,0
2018-05-29T00:19:03.931Z,0
2018-05-29T00:20:12.857Z,0
2018-05-29T00:21:21.837Z,0
2018-05-29T00:22:30.746Z,0
2018-05-29T00:23:39.901Z,0
2018-05-29T00:24:49.832Z,0
2018-05-29T00:25:59.509Z,0
2018-05-29T00:27:09.200Z,0
2018-05-29T00:28:18.880Z,0
2018-05-29T00:29:28.050Z,0
2018-05-29T00:30:37.998Z,0
2018-05-29T00:31:47.438Z,0
2018-05-29T00:32:56.844Z,0
2018-05-29T00:34:06.006Z,0
2018-05-29T00:35:15.715Z,0
2018-05-29T00:36:25.387Z,0
2018-05-29T00:37:34.814Z,0
2018-05-29T00:38:44.748Z,0
2018-05-29T00:39:54.454Z,0
2018-05-29T00:41:03.870Z,0
2018-05-29T00:42:13.332Z,0
2018-05-29T00:43:22.759Z,0
2018-05-29T00:44:31.915Z,0
2018-05-29T00:45:41.357Z,0
2018-05-29T00:46:51.284Z,0
2018-05-29T00:48:00.972Z,0
2018-05-29T00:49:10.403Z,0
2018-05-29T00:50:20.355Z,0
2018-05-29T00:51:29.515Z,0
2018-05-29T00:52:38.674Z,0
2018-05-29T00:53:48.346Z,0
2018-05-29T00:54:57.846Z,0
2018-05-29T00:56:07.015Z,0
2018-05-29T00:57:16.430Z,0
2018-05-29T00:58:25.843Z,0
2018-05-29T00:59:35.248Z,0
2018-05-29T01:00:44.937Z,0
2018-05-29T01:01:54.105Z,0
2018-05-29T01:03:03.785Z,0
2018-05-29T01:04:12.963Z,0
2018-05-29T01:05:22.668Z,0
2018-05-29T01:06:31.859Z,0
2018-05-29T01:07:41.029Z,0
2018-05-29T01:08:49.928Z,0
2018-05-29T01:09:59.356Z,0
2018-05-29T01:11:08.254Z,0
2018-05-29T01:12:17.681Z,0
2018-05-29T01:13:27.107Z,0
2018-05-29T01:14:36.775Z,0
2018-05-29T01:15:46.188Z,0
2018-05-29T01:16:55.600Z,0
2018-05-29T01:18:05.271Z,0
2018-05-29T01:19:15.250Z,0
2018-05-29T01:20:24.414Z,0
2018-05-29T01:21:33.840Z,0
2018-05-29T01:22:43.265Z,0
2018-05-29T01:23:52.181Z,0
2018-05-29T01:25:01.865Z,0
2018-05-29T01:26:11.582Z,0
2018-05-29T01:27:20.752Z,0
2018-05-29T01:28:30.180Z,0
2018-05-29T01:29:39.628Z,0
2018-05-29T01:30:49.302Z,0
2018-05-29T01:31:58.997Z,0
2018-05-29T01:33:08.176Z,0
2018-05-29T01:34:17.605Z,0
2018-05-29T01:35:27.023Z,0
2018-05-29T01:36:36.192Z,0
2018-05-29T01:37:45.619Z,0
2018-05-29T01:38:54.790Z,0
2018-05-29T01:40:03.979Z,0
2018-05-29T01:41:13.149Z,0
2018-05-29T01:42:22.330Z,0
2018-05-29T01:43:31.528Z,0
2018-05-29T01:44:40.932Z,0
2018-05-29T01:45:50.614Z,0
2018-05-29T01:47:00.044Z,0
2018-05-29T01:48:09.741Z,0
2018-05-29T01:49:19.444Z,0
2018-05-29T01:50:28.898Z,0
2018-05-29T01:51:38.067Z,0
2018-05-29T01:52:46.980Z,0
2018-05-29T01:53:56.407Z,0
2018-05-29T01:55:05.628Z,0
2018-05-29T01:56:15.060Z,0
2018-05-29T01:57:24.750Z,0
2018-05-29T01:58:34.208Z,0
2018-05-29T01:59:43.952Z,0
2018-05-29T02:00:53.112Z,0
2018-05-29T02:02:02.273Z,0
2018-05-29T02:03:11.201Z,0
2018-05-29T02:04:21.072Z,0
2018-05-29T02:05:30.856Z,0
2018-05-29T02:06:39.751Z,0
2018-05-29T02:07:49.170Z,0
2018-05-29T02:08:58.110Z,0
2018-05-29T02:10:07.537Z,0
2018-05-29T02:11:16.958Z,0
2018-05-29T02:12:26.144Z,0
2018-05-29T02:13:35.316Z,0
2018-05-29T02:14:44.987Z,0
2018-05-29T02:15:54.152Z,0
2018-05-29T02:17:03.889Z,0
2018-05-29T02:18:13.320Z,0
2018-05-29T02:19:22.500Z,0
2018-05-29T02:20:32.187Z,0
2018-05-29T02:21:41.879Z,0
2018-05-29T02:22:51.298Z,0
2018-05-29T02:24:00.731Z,0
2018-05-29T02:25:10.154Z,0
2018-05-29T02:26:19.335Z,0
2018-05-29T02:27:28.273Z,0
2018-05-29T02:28:37.695Z,0
2018-05-29T02:29:46.857Z,0
2018-05-29T02:30:56.044Z,0
2018-05-29T02:32:05.226Z,0
2018-05-29T02:33:14.924Z,0
2018-05-29T02:34:24.351Z,0
2018-05-29T02:35:33.298Z,0
2018-05-29T02:36:42.505Z,0
2018-05-29T02:37:52.208Z,0
2018-05-29T02:39:02.155Z,0
2018-05-29T02:40:11.626Z,0
2018-05-29T02:41:21.339Z,0
2018-05-29T02:42:30.795Z,0
2018-05-29T02:43:40.751Z,0
2018-05-29T02:44:50.202Z,0
2018-05-29T02:45:59.674Z,0
2018-05-29T02:47:08.871Z,0
2018-05-29T02:48:18.076Z,0
2018-05-29T02:49:27.503Z,0
2018-05-29T02:50:36.930Z,0
2018-05-29T02:51:46.660Z,0
2018-05-29T02:52:56.365Z,0
2018-05-29T02:54:06.049Z,0
2018-05-29T02:55:15.477Z,0
2018-05-29T02:56:24.665Z,0
2018-05-29T02:57:34.672Z,0
2018-05-29T02:58:43.844Z,0
2018-05-29T02:59:53.520Z,0
2018-05-29T03:01:02.939Z,0
2018-05-29T03:02:12.379Z,0
2018-05-29T03:03:22.515Z,0
2018-05-29T03:04:31.699Z,0
2018-05-29T03:05:40.616Z,0
2018-05-29T03:06:50.040Z,0
2018-05-29T03:07:59.589Z,0
2018-05-29T03:09:09.054Z,0
2018-05-29T03:10:18.485Z,0
2018-05-29T03:11:27.454Z,0
2018-05-29T03:12:36.610Z,0
2018-05-29T03:13:46.298Z,0
2018-05-29T03:14:56.245Z,0
2018-05-29T03:16:05.689Z,0
2018-05-29T03:17:15.084Z,0
2018-05-29T03:18:24.758Z,0
2018-05-29T03:19:34.202Z,0
2018-05-29T03:20:43.397Z,0
2018-05-29T03:21:52.551Z,0
2018-05-29T03:23:02.485Z,0
2018-05-29T03:24:11.405Z,0
2018-05-29T03:25:20.323Z,0
2018-05-29T03:26:29.264Z,0
2018-05-29T03:27:38.461Z,0
2018-05-29T03:28:48.149Z,0
2018-05-29T03:29:57.828Z,0
2018-05-29T03:31:07.260Z,0
2018-05-29T03:32:17.187Z,0
2018-05-29T03:33:26.606Z,0
2018-05-29T03:34:36.470Z,0
2018-05-29T03:35:46.417Z,0
2018-05-29T03:36:55.839Z,0
2018-05-29T03:38:05.526Z,0
2018-05-29T03:39:14.724Z,0
2018-05-29T03:40:23.904Z,0
2018-05-29T03:41:33.101Z,0
2018-05-29T03:42:42.782Z,0
2018-05-29T03:43:52.238Z,0
2018-05-29T03:45:01.680Z,0
2018-05-29T03:46:10.859Z,0
2018-05-29T03:47:19.777Z,0
2018-05-29T03:48:28.953Z,0
2018-05-29T03:49:38.631Z,0
2018-05-29T03:50:48.305Z,0
2018-05-29T03:51:57.451Z,0
2018-05-29T03:53:06.866Z,0
2018-05-29T03:54:16.556Z,0
2018-05-29T03:55:26.486Z,0
2018-05-29T03:56:35.645Z,0
2018-05-29T03:57:45.308Z,0
2018-05-29T03:58:54.482Z,0
2018-05-29T04:00:04.168Z,0
2018-05-29T04:01:13.346Z,0
2018-05-29T04:02:22.510Z,0
2018-05-29T04:03:32.206Z,0
2018-05-29T04:04:41.373Z,0
2018-05-29T04:05:51.750Z,0
2018-05-29T04:07:01.416Z,4
2018-05-29T04:08:10.577Z,4
2018-05-29T04:09:19.533Z,4
2018-05-29T04:10:29.186Z,4
2018-05-29T04:11:38.618Z,4
2018-05-29T04:12:48.570Z,4
2018-05-29T04:13:57.203Z,4
2018-05-29T04:15:06.367Z,4
2018-05-29T04:16:15.553Z,4
2018-05-29T04:17:24.980Z,4
2018-05-29T04:18:34.917Z,4
2018-05-29T04:19:44.079Z,4
2018-05-29T04:20:53.506Z,4
2018-05-29T04:22:03.185Z,0
2018-05-29T04:23:12.084Z,0
2018-05-29T04:24:21.502Z,0
2018-05-29T04:25:31.200Z,0
2018-05-29T04:26:40.369Z,0
2018-05-29T04:27:49.535Z,0
2018-05-29T04:28:59.229Z,0
2018-05-29T04:30:09.172Z,0
2018-05-29T04:31:18.864Z,0
2018-05-29T04:32:28.801Z,4
2018-05-29T04:33:38.215Z,4
2018-05-29T04:34:47.386Z,4
2018-05-29T04:35:56.553Z,4
2018-05-29T04:37:06.499Z,4
2018-05-29T04:38:16.187Z,4
2018-05-29T04:39:25.366Z,4
2018-05-29T04:40:35.078Z,4
2018-05-29T04:41:44.768Z,4
2018-05-29T04:42:54.191Z,4
2018-05-29T04:44:03.121Z,0
2018-05-29T04:45:12.825Z,0
2018-05-29T04:46:22.513Z,0
2018-05-29T04:47:31.414Z,4
2018-05-29T04:48:40.356Z,4
2018-05-29T04:49:49.939Z,4
2018-05-29T04:50:59.640Z,4
2018-05-29T04:52:08.805Z,4
2018-05-29T04:53:18.238Z,4
2018-05-29T04:54:27.914Z,4
2018-05-29T04:55:37.594Z,4
2018-05-29T04:56:46.898Z,4
2018-05-29T04:57:56.077Z,4
2018-05-29T04:59:05.757Z,4
2018-05-29T05:00:15.192Z,4
2018-05-29T05:01:25.120Z,4
2018-05-29T05:02:34.707Z,4
2018-05-29T05:03:44.262Z,4
2018-05-29T05:04:53.966Z,4
2018-05-29T05:06:03.405Z,4
2018-05-29T05:07:13.115Z,8
2018-05-29T05:08:22.269Z,4
2018-05-29T05:09:31.183Z,4
2018-05-29T05:10:40.627Z,4
2018-05-29T05:11:49.843Z,8
2018-05-29T05:12:59.261Z,8
2018-05-29T05:14:08.671Z,8
2018-05-29T05:15:17.560Z,8
2018-05-29T05:16:26.741Z,8
2018-05-29T05:17:36.180Z,8
2018-05-29T05:18:45.868Z,8
2018-05-29T05:19:54.781Z,8
2018-05-29T05:21:03.943Z,8
2018-05-29T05:22:13.449Z,12
2018-05-29T05:23:22.865Z,12
2018-05-29T05:24:32.342Z,8
2018-05-29T05:25:41.520Z,8
2018-05-29T05:26:50.958Z,8
2018-05-29T05:28:00.125Z,8
2018-05-29T05:29:09.547Z,12
2018-05-29T05:30:19.274Z,12
2018-05-29T05:31:28.502Z,12
2018-05-29T05:32:37.413Z,8
2018-05-29T05:33:46.847Z,4
2018-05-29T05:34:56.557Z,8
2018-05-29T05:36:06.527Z,8
2018-05-29T05:37:15.686Z,12
2018-05-29T05:38:25.357Z,12
2018-05-29T05:39:35.056Z,8
2018-05-29T05:40:44.504Z,12
2018-05-29T05:41:53.676Z,12
2018-05-29T05:43:03.120Z,16
2018-05-29T05:44:12.785Z,16
2018-05-29T05:45:22.222Z,16
2018-05-29T05:46:31.395Z,16
2018-05-29T05:47:41.139Z,16
2018-05-29T05:48:50.303Z,20
2018-05-29T05:49:59.985Z,16
2018-05-29T05:51:08.896Z,20
2018-05-29T05:52:18.321Z,20
2018-05-29T05:53:27.491Z,20
2018-05-29T05:54:36.899Z,20
2018-05-29T05:55:46.856Z,20
2018-05-29T05:56:55.756Z,24
2018-05-29T05:58:04.654Z,24
2018-05-29T05:59:14.083Z,20
2018-05-29T06:00:23.780Z,20
2018-05-29T06:01:33.218Z,24
2018-05-29T06:02:42.896Z,20
2018-05-29T06:03:51.788Z,24
2018-05-29T06:05:01.460Z,20
2018-05-29T06:06:11.191Z,24
2018-05-29T06:07:20.378Z,28
2018-05-29T06:08:29.804Z,28
2018-05-29T06:09:39.009Z,12
2018-05-29T06:10:48.210Z,12
2018-05-29T06:11:57.646Z,16
2018-05-29T06:13:06.809Z,16
2018-05-29T06:14:16.760Z,12
2018-05-29T06:15:26.454Z,16
2018-05-29T06:16:36.166Z,16
2018-05-29T06:17:45.362Z,16
2018-05-29T06:18:54.791Z,12
2018-05-29T06:20:04.222Z,16
2018-05-29T06:21:14.144Z,32
2018-05-29T06:22:23.331Z,36
2018-05-29T06:23:33.017Z,40
2018-05-29T06:24:42.373Z,40
2018-05-29T06:25:51.813Z,40
2018-05-29T06:27:01.282Z,40
2018-05-29T06:28:10.463Z,40
2018-05-29T06:29:19.875Z,36
2018-05-29T06:30:29.310Z,32
2018-05-29T06:31:39.311Z,28
2018-05-29T06:32:49.140Z,28
2018-05-29T06:33:58.566Z,24
2018-05-29T06:35:07.477Z,24
2018-05-29T06:36:16.951Z,24
2018-05-29T06:37:26.394Z,24
2018-05-29T06:38:36.361Z,24
2018-05-29T06:39:45.825Z,24
2018-05-29T06:40:54.741Z,28
2018-05-29T06:42:03.930Z,32
2018-05-29T06:43:12.860Z,32
2018-05-29T06:44:22.290Z,36
2018-05-29T06:45:31.732Z,16
2018-05-29T06:46:41.161Z,16
2018-05-29T06:47:50.326Z,16
2018-05-29T06:48:59.485Z,16
2018-05-29T06:50:08.653Z,16
2018-05-29T06:51:17.299Z,16
2018-05-29T06:52:26.189Z,12
2018-05-29T06:53:35.623Z,16
2018-05-29T06:54:45.546Z,12
2018-05-29T06:55:55.550Z,16
2018-05-29T06:57:04.455Z,12
2018-05-29T06:58:13.622Z,12
2018-05-29T06:59:22.789Z,4
2018-05-29T07:00:31.979Z,4
2018-05-29T07:01:41.397Z,8
2018-05-29T07:02:50.314Z,4
2018-05-29T07:03:59.988Z,8
2018-05-29T07:05:08.940Z,8
2018-05-29T07:06:17.845Z,8
2018-05-29T07:07:27.266Z,4
2018-05-29T07:08:36.683Z,4
2018-05-29T07:09:46.119Z,4
2018-05-29T07:10:56.064Z,4
2018-05-29T07:12:05.533Z,4
2018-05-29T07:13:14.701Z,0
2018-05-29T07:14:24.379Z,4
2018-05-29T07:15:33.804Z,4
2018-05-29T07:16:43.225Z,4
2018-05-29T07:17:52.643Z,4
2018-05-29T07:19:01.805Z,4
2018-05-29T07:20:10.981Z,4
2018-05-29T07:21:20.393Z,4
2018-05-29T07:22:29.806Z,0
2018-05-29T07:23:38.704Z,0
2018-05-29T07:24:47.909Z,0
2018-05-29T07:25:57.607Z,4
2018-05-29T07:27:06.524Z,4
2018-05-29T07:28:15.950Z,4
2018-05-29T07:29:25.889Z,4
2018-05-29T07:30:35.058Z,4
2018-05-29T07:31:43.969Z,4
2018-05-29T07:32:53.380Z,4
2018-05-29T07:34:02.555Z,4
2018-05-29T07:35:11.732Z,4
2018-05-29T07:36:20.898Z,4
2018-05-29T07:37:30.581Z,4
2018-05-29T07:38:40.269Z,4
2018-05-29T07:39:50.103Z,4
2018-05-29T07:40:59.795Z,4
2018-05-29T07:42:09.748Z,4
2018-05-29T07:43:18.932Z,4
2018-05-29T07:44:28.879Z,4
2018-05-29T07:45:37.774Z,4
2018-05-29T07:46:47.465Z,4
2018-05-29T07:47:56.905Z,4
2018-05-29T07:49:05.814Z,4
2018-05-29T07:50:14.974Z,4
2018-05-29T07:51:24.428Z,0
2018-05-29T07:52:34.105Z,0
2018-05-29T07:53:43.339Z,0
2018-05-29T07:54:53.024Z,0
2018-05-29T07:56:02.450Z,0
2018-05-29T07:57:11.620Z,0
2018-05-29T07:58:21.314Z,0
2018-05-29T07:59:30.734Z,0
2018-05-29T08:00:40.170Z,0
2018-05-29T08:01:49.611Z,0
2018-05-29T08:02:59.022Z,0
2018-05-29T08:04:08.201Z,0
2018-05-29T08:05:17.384Z,0
2018-05-29T08:06:27.137Z,0
2018-05-29T08:07:36.874Z,0
2018-05-29T08:08:46.342Z,0
2018-05-29T08:09:55.752Z,0
2018-05-29T08:11:04.913Z,0
2018-05-29T08:12:14.347Z,0
2018-05-29T08:13:24.320Z,0
2018-05-29T08:14:34.698Z,0
2018-05-29T08:15:44.132Z,0
2018-05-29T08:16:53.306Z,0
2018-05-29T08:18:02.728Z,0
2018-05-29T08:19:12.401Z,0
2018-05-29T08:20:21.563Z,0
2018-05-29T08:21:31.254Z,0
2018-05-29T08:22:40.684Z,0
2018-05-29T08:23:49.888Z,0
2018-05-29T08:24:59.316Z,0
2018-05-29T08:26:08.724Z,0
2018-05-29T08:27:18.661Z,0
2018-05-29T08:28:28.356Z,0
2018-05-29T08:29:37.762Z,0
2018-05-29T08:30:47.438Z,0
2018-05-29T08:31:56.607Z,0
2018-05-29T08:33:06.030Z,0
2018-05-29T08:34:15.470Z,0
2018-05-29T08:35:25.152Z,0
2018-05-29T08:36:34.292Z,0
2018-05-29T08:37:43.709Z,0
2018-05-29T08:38:53.387Z,0
2018-05-29T08:40:02.819Z,0
2018-05-29T08:41:11.469Z,0
2018-05-29T08:42:20.381Z,0
2018-05-29T08:43:30.057Z,0
2018-05-29T08:44:38.966Z,0
2018-05-29T08:45:47.887Z,0
2018-05-29T08:46:57.071Z,0
2018-05-29T08:48:06.488Z,0
2018-05-29T08:49:16.191Z,0
2018-05-29T08:50:25.600Z,0
2018-05-29T08:51:35.011Z,0
2018-05-29T08:52:44.166Z,0
2018-05-29T08:53:53.330Z,0
2018-05-29T08:55:02.740Z,0
2018-05-29T08:56:12.675Z,0
2018-05-29T08:57:22.502Z,0
2018-05-29T08:58:31.637Z,0
2018-05-29T08:59:41.094Z,0
2018-05-29T09:00:50.532Z,0
2018-05-29T09:02:00.231Z,0
2018-05-29T09:03:09.659Z,0
2018-05-29T09:04:19.491Z,0
2018-05-29T09:05:29.533Z,0
2018-05-29T09:06:39.212Z,0
2018-05-29T09:07:48.899Z,0
2018-05-29T09:08:58.367Z,0
2018-05-29T09:10:08.063Z,0
2018-05-29T09:11:17.217Z,0
2018-05-29T09:12:26.907Z,0
2018-05-29T09:13:36.345Z,0
2018-05-29T09:14:45.514Z,0
2018-05-29T09:15:54.938Z,0
2018-05-29T09:17:04.115Z,0
2018-05-29T09:18:13.534Z,0
2018-05-29T09:19:23.203Z,4
2018-05-29T09:20:32.413Z,4
2018-05-29T09:21:41.329Z,4
2018-05-29T09:22:51.020Z,0
2018-05-29T09:24:00.193Z,4
2018-05-29T09:25:09.667Z,4
2018-05-29T09:26:19.099Z,0
2018-05-29T09:27:28.528Z,0
2018-05-29T09:28:37.686Z,0
2018-05-29T09:29:47.686Z,0
2018-05-29T09:30:56.687Z,0
2018-05-29T09:32:06.776Z,0
2018-05-29T09:33:16.229Z,0
2018-05-29T09:34:25.662Z,0
2018-05-29T09:35:35.612Z,4
2018-05-29T09:36:45.115Z,0
2018-05-29T09:37:54.054Z,0
2018-05-29T09:39:03.238Z,4
2018-05-29T09:40:12.951Z,4
2018-05-29T09:41:22.669Z,4
2018-05-29T09:42:32.095Z,4
2018-05-29T09:43:41.519Z,4
2018-05-29T09:44:50.756Z,4
2018-05-29T09:46:00.854Z,4
2018-05-29T09:47:10.273Z,4
2018-05-29T09:48:19.837Z,4
2018-05-29T09:49:29.085Z,4
2018-05-29T09:50:38.258Z,4
2018-05-29T09:51:47.208Z,4
2018-05-29T09:52:56.868Z,4
2018-05-29T09:54:06.623Z,4
2018-05-29T09:55:15.824Z,4
2018-05-29T09:56:25.253Z,4
2018-05-29T09:57:34.689Z,4
2018-05-29T09:58:43.853Z,4
2018-05-29T09:59:53.523Z,4
2018-05-29T10:01:02.696Z,4
2018-05-29T10:02:12.389Z,4
2018-05-29T10:03:22.097Z,4
2018-05-29T10:04:31.277Z,4
2018-05-29T10:05:40.949Z,4
2018-05-29T10:06:50.366Z,4
2018-05-29T10:07:59.291Z,4
2018-05-29T10:09:08.233Z,4
2018-05-29T10:10:17.657Z,4
2018-05-29T10:11:28.040Z,4
2018-05-29T10:12:37.207Z,4
2018-05-29T10:13:46.879Z,4
2018-05-29T10:14:56.286Z,4
2018-05-29T10:16:05.461Z,4
2018-05-29T10:17:15.040Z,4
2018-05-29T10:18:24.467Z,4
2018-05-29T10:19:33.764Z,0
2018-05-29T10:20:43.245Z,0
2018-05-29T10:21:52.695Z,0
2018-05-29T10:23:01.852Z,4
2018-05-29T10:24:11.286Z,4
2018-05-29T10:25:20.456Z,0
2018-05-29T10:26:30.135Z,0
2018-05-29T10:27:39.032Z,4
2018-05-29T10:28:48.749Z,4
2018-05-29T10:29:58.168Z,4
2018-05-29T10:31:07.330Z,4
2018-05-29T10:32:16.745Z,4
2018-05-29T10:33:26.497Z,4
2018-05-29T10:34:35.647Z,4
2018-05-29T10:35:45.069Z,4
2018-05-29T10:36:54.511Z,4
2018-05-29T10:38:04.212Z,4
2018-05-29T10:39:13.630Z,4
2018-05-29T10:40:23.294Z,4
2018-05-29T10:41:33.237Z,4
2018-05-29T10:42:42.416Z,4
2018-05-29T10:43:51.844Z,4
2018-05-29T10:45:01.430Z,4
2018-05-29T10:46:11.176Z,4
2018-05-29T10:47:19.838Z,4
2018-05-29T10:48:29.264Z,4
2018-05-29T10:49:38.692Z,4
2018-05-29T10:50:47.599Z,4
2018-05-29T10:51:57.428Z,4
2018-05-29T10:53:06.307Z,4
2018-05-29T10:54:15.728Z,4
2018-05-29T10:55:25.411Z,4
2018-05-29T10:56:35.353Z,4
2018-05-29T10:57:45.031Z,4
2018-05-29T10:58:53.926Z,0
2018-05-29T11:00:03.341Z,0
2018-05-29T11:01:13.019Z,0
2018-05-29T11:02:22.439Z,0
2018-05-29T11:03:32.148Z,0
2018-05-29T11:04:41.333Z,0
2018-05-29T11:05:50.494Z,4
2018-05-29T11:07:00.632Z,4
2018-05-29T11:08:09.791Z,4
2018-05-29T11:09:19.719Z,4
2018-05-29T11:10:29.149Z,0
2018-05-29T11:11:38.832Z,0
2018-05-29T11:12:48.254Z,0
2018-05-29T11:13:57.944Z,0
2018-05-29T11:15:07.093Z,0
2018-05-29T11:16:17.046Z,0
2018-05-29T11:17:26.525Z,0
2018-05-29T11:18:35.933Z,0
2018-05-29T11:19:45.391Z,0
2018-05-29T11:20:54.809Z,0
2018-05-29T11:22:04.236Z,0
2018-05-29T11:23:13.400Z,4
2018-05-29T11:24:22.560Z,4
2018-05-29T11:25:31.987Z,4
2018-05-29T11:26:41.150Z,4
2018-05-29T11:27:50.047Z,4
2018-05-29T11:29:00.001Z,4
2018-05-29T11:30:09.429Z,4
2018-05-29T11:31:19.003Z,4
2018-05-29T11:32:29.013Z,4
2018-05-29T11:33:38.709Z,4
2018-05-29T11:34:48.396Z,4
2018-05-29T11:35:57.604Z,4
2018-05-29T11:37:07.030Z,4
2018-05-29T11:38:16.517Z,4
2018-05-29T11:39:25.706Z,4
2018-05-29T11:40:34.860Z,4
2018-05-29T11:41:44.028Z,4
2018-05-29T11:42:53.453Z,4
2018-05-29T11:44:02.617Z,4
2018-05-29T11:45:11.770Z,4
2018-05-29T11:46:21.204Z,4
2018-05-29T11:47:30.917Z,0
2018-05-29T11:48:40.552Z,0
2018-05-29T11:49:50.027Z,4
2018-05-29T11:50:59.441Z,4
2018-05-29T11:52:08.626Z,4
2018-05-29T11:53:18.041Z,4
2018-05-29T11:54:27.974Z,4
2018-05-29T11:55:37.919Z,4
2018-05-29T11:56:47.351Z,4
2018-05-29T11:57:56.523Z,0
2018-05-29T11:59:05.941Z,4
2018-05-29T12:00:15.631Z,4
2018-05-29T12:01:25.582Z,0
2018-05-29T12:02:35.046Z,4
2018-05-29T12:03:44.226Z,4
2018-05-29T12:04:53.990Z,0
2018-05-29T12:06:03.679Z,4
2018-05-29T12:07:13.108Z,4
2018-05-29T12:08:22.795Z,4
2018-05-29T12:09:32.512Z,4
2018-05-29T12:10:42.458Z,4
2018-05-29T12:11:52.136Z,4
2018-05-29T12:13:01.406Z,4
2018-05-29T12:14:10.594Z,4
2018-05-29T12:15:19.500Z,4
2018-05-29T12:16:28.937Z,4
2018-05-29T12:17:38.627Z,4
2018-05-29T12:18:49.043Z,4
2018-05-29T12:19:58.488Z,8
2018-05-29T12:21:07.919Z,8
2018-05-29T12:22:17.397Z,8
2018-05-29T12:23:26.768Z,4
2018-05-29T12:24:36.442Z,4
2018-05-29T12:25:45.865Z,4
2018-05-29T12:26:55.035Z,4
2018-05-29T12:28:04.724Z,4
2018-05-29T12:29:14.136Z,4
2018-05-29T12:30:23.573Z,8
2018-05-29T12:31:32.492Z,4
2018-05-29T12:32:42.184Z,8
2018-05-29T12:33:51.867Z,4
2018-05-29T12:35:00.773Z,4
2018-05-29T12:36:10.498Z,8
2018-05-29T12:37:19.962Z,8
2018-05-29T12:38:29.378Z,8
2018-05-29T12:39:38.866Z,4
2018-05-29T12:40:48.069Z,8
2018-05-29T12:41:57.734Z,4
2018-05-29T12:43:07.252Z,8
2018-05-29T12:44:16.397Z,8
2018-05-29T12:45:26.091Z,4
2018-05-29T12:46:35.768Z,8
2018-05-29T12:47:44.952Z,4
2018-05-29T12:48:54.898Z,8
2018-05-29T12:50:04.513Z,4
2018-05-29T12:51:13.430Z,12
2018-05-29T12:52:22.860Z,8
2018-05-29T12:53:32.542Z,8
2018-05-29T12:54:42.046Z,8
2018-05-29T12:55:51.772Z,8
2018-05-29T12:57:01.580Z,8
2018-05-29T12:58:11.022Z,8
2018-05-29T12:59:20.714Z,8
2018-05-29T13:00:30.159Z,8
2018-05-29T13:01:39.871Z,8
2018-05-29T13:02:49.578Z,8
2018-05-29T13:03:59.000Z,8
2018-05-29T13:05:08.727Z,8
2018-05-29T13:06:18.412Z,4
2018-05-29T13:07:27.838Z,4
2018-05-29T13:08:36.733Z,4
2018-05-29T13:09:45.899Z,8
2018-05-29T13:10:55.584Z,4
2018-05-29T13:12:05.059Z,4
2018-05-29T13:13:14.502Z,4
2018-05-29T13:14:23.416Z,4
2018-05-29T13:15:32.618Z,0
2018-05-29T13:16:42.470Z,4
2018-05-29T13:17:52.189Z,0
2018-05-29T13:19:01.873Z,0
2018-05-29T13:20:11.291Z,0
2018-05-29T13:21:20.457Z,0
2018-05-29T13:22:29.634Z,0
2018-05-29T13:23:39.360Z,0
2018-05-29T13:24:48.792Z,0
2018-05-29T13:25:58.464Z,0
2018-05-29T13:27:08.240Z,0
2018-05-29T13:28:18.029Z,0
2018-05-29T13:29:27.467Z,0
2018-05-29T13:30:37.426Z,0
2018-05-29T13:31:47.090Z,0
2018-05-29T13:32:57.031Z,0
2018-05-29T13:34:06.227Z,0
2018-05-29T13:35:15.824Z,0
2018-05-29T13:36:25.570Z,0
2018-05-29T13:37:35.271Z,0
2018-05-29T13:38:44.691Z,0
2018-05-29T13:39:54.415Z,0
2018-05-29T13:41:03.854Z,0
2018-05-29T13:42:13.536Z,0
2018-05-29T13:43:22.949Z,0
2018-05-29T13:44:32.399Z,0
2018-05-29T13:45:42.085Z,0
2018-05-29T13:46:51.496Z,0
2018-05-29T13:48:00.643Z,0
2018-05-29T13:49:10.490Z,0
2018-05-29T13:50:20.298Z,0
2018-05-29T13:51:30.243Z,0
2018-05-29T13:52:39.409Z,0
2018-05-29T13:53:49.098Z,0
2018-05-29T13:54:58.811Z,0
2018-05-29T13:56:07.979Z,0
2018-05-29T13:57:17.916Z,0
2018-05-29T13:58:27.611Z,0
2018-05-29T13:59:37.292Z,0
2018-05-29T14:00:46.504Z,0
2018-05-29T14:01:55.912Z,0
2018-05-29T14:03:05.367Z,0
2018-05-29T14:04:15.327Z,0
2018-05-29T14:05:24.229Z,0
2018-05-29T14:06:33.669Z,0
2018-05-29T14:07:43.336Z,0
2018-05-29T14:08:53.296Z,0
2018-05-29T14:10:02.698Z,0
2018-05-29T14:11:11.605Z,0
2018-05-29T14:12:20.777Z,0
2018-05-29T14:13:29.680Z,0
2018-05-29T14:14:39.119Z,0
2018-05-29T14:15:48.535Z,0
2018-05-29T14:16:57.952Z,0
2018-05-29T14:18:07.621Z,0
2018-05-29T14:19:17.314Z,0
2018-05-29T14:20:26.222Z,0
2018-05-29T14:21:36.164Z,0
2018-05-29T14:22:45.335Z,0
2018-05-29T14:23:55.087Z,0
2018-05-29T14:25:04.515Z,0
2018-05-29T14:26:14.203Z,0
2018-05-29T14:27:23.626Z,0
2018-05-29T14:28:33.038Z,0
2018-05-29T14:29:42.470Z,0
2018-05-29T14:30:52.429Z,0
2018-05-29T14:32:01.884Z,0
2018-05-29T14:33:11.296Z,0
2018-05-29T14:34:20.979Z,0
2018-05-29T14:35:30.135Z,0
2018-05-29T14:36:39.296Z,0
2018-05-29T14:37:48.449Z,0
2018-05-29T14:38:58.384Z,0
2018-05-29T14:40:07.863Z,0
2018-05-29T14:41:17.536Z,0
2018-05-29T14:42:26.689Z,0
2018-05-29T14:43:36.374Z,0
2018-05-29T14:44:46.111Z,0
2018-05-29T14:45:55.016Z,0
2018-05-29T14:47:04.434Z,0
2018-05-29T14:48:13.857Z,0
2018-05-29T14:49:24.053Z,0
2018-05-29T14:50:33.479Z,0
2018-05-29T14:51:42.636Z,0
2018-05-29T14:52:51.328Z,0
2018-05-29T14:54:00.245Z,0
2018-05-29T14:55:09.982Z,0
2018-05-29T14:56:19.147Z,0
2018-05-29T14:57:28.993Z,0
2018-05-29T14:58:38.977Z,0
2018-05-29T14:59:48.313Z,0
2018-05-29T15:00:57.855Z,0
2018-05-29T15:02:07.343Z,0
2018-05-29T15:03:16.285Z,0
2018-05-29T15:04:25.531Z,0
2018-05-29T15:05:35.023Z,0
2018-05-29T15:06:44.439Z,0
2018-05-29T15:07:53.605Z,0
2018-05-29T15:09:03.092Z,0
2018-05-29T15:10:12.846Z,0
2018-05-29T15:11:22.523Z,0
2018-05-29T15:12:31.684Z,0
2018-05-29T15:13:41.423Z,0
2018-05-29T15:14:51.111Z,0
2018-05-29T15:16:00.011Z,0
2018-05-29T15:17:08.966Z,0
2018-05-29T15:18:18.129Z,0
2018-05-29T15:19:27.289Z,0
2018-05-29T15:20:36.705Z,0
2018-05-29T15:21:46.127Z,0
2018-05-29T15:22:55.596Z,0
2018-05-29T15:24:05.309Z,0
2018-05-29T15:25:14.740Z,0
2018-05-29T15:26:23.651Z,0
2018-05-29T15:27:33.337Z,0
2018-05-29T15:28:42.491Z,0
2018-05-29T15:29:51.937Z,0
2018-05-29T15:31:01.362Z,0
2018-05-29T15:32:10.786Z,0
2018-05-29T15:33:20.380Z,0
2018-05-29T15:34:29.850Z,0
2018-05-29T15:35:39.774Z,0
2018-05-29T15:36:49.168Z,0
2018-05-29T15:37:58.581Z,0
2018-05-29T15:39:07.735Z,0
2018-05-29T15:40:16.647Z,0
2018-05-29T15:41:26.371Z,0
2018-05-29T15:42:35.779Z,0
2018-05-29T15:43:45.253Z,0
2018-05-29T15:44:54.938Z,0
2018-05-29T15:46:03.864Z,0
2018-05-29T15:47:13.348Z,0
2018-05-29T15:48:22.326Z,0
2018-05-29T15:49:32.054Z,0
2018-05-29T15:50:41.268Z,0
2018-05-29T15:51:50.234Z,0
2018-05-29T15:52:59.450Z,0
2018-05-29T15:54:08.662Z,0
2018-05-29T15:55:17.874Z,0
2018-05-29T15:56:27.090Z,0
2018-05-29T15:57:36.553Z,0
2018-05-29T15:58:46.560Z,0
2018-05-29T15:59:56.487Z,0
2018-05-29T16:01:06.076Z,0
2018-05-29T16:02:15.827Z,0
2018-05-29T16:03:25.075Z,0
2018-05-29T16:04:35.213Z,0
2018-05-29T16:05:44.689Z,0
2018-05-29T16:06:54.172Z,0
2018-05-29T16:08:03.637Z,0
2018-05-29T16:09:13.369Z,0
2018-05-29T16:10:22.570Z,0
2018-05-29T16:11:32.102Z,0
2018-05-29T16:12:41.637Z,0
2018-05-29T16:13:50.337Z,0
2018-05-29T16:15:00.124Z,0
2018-05-29T16:16:09.413Z,0
2018-05-29T16:17:18.646Z,0
2018-05-29T16:18:28.409Z,0
2018-05-29T16:19:37.630Z,0
2018-05-29T16:20:47.376Z,0
2018-05-29T16:21:57.357Z,0
2018-05-29T16:23:06.576Z,0
2018-05-29T16:24:16.359Z,0
2018-05-29T16:25:26.117Z,0
2018-05-29T16:26:35.107Z,0
2018-05-29T16:27:45.162Z,0
2018-05-29T16:28:54.895Z,0
2018-05-29T16:30:04.448Z,0
2018-05-29T16:31:14.207Z,0
2018-05-29T16:32:22.912Z,0
2018-05-29T16:33:32.397Z,0
2018-05-29T16:34:42.382Z,0
2018-05-29T16:35:52.343Z,0
2018-05-29T16:37:01.821Z,0
2018-05-29T16:38:11.026Z,0
2018-05-29T16:39:20.276Z,0
2018-05-29T16:40:29.334Z,0
2018-05-29T16:41:39.218Z,0
2018-05-29T16:42:48.261Z,0
2018-05-29T16:43:57.987Z,0
2018-05-29T16:45:07.749Z,0
2018-05-29T16:46:17.309Z,0
2018-05-29T16:47:27.329Z,0
2018-05-29T16:48:36.856Z,0
2018-05-29T16:49:46.362Z,0
2018-05-29T16:50:55.294Z,0
2018-05-29T16:52:04.283Z,0
2018-05-29T16:53:13.531Z,0
2018-05-29T16:54:23.001Z,0
2018-05-29T16:55:32.519Z,0
2018-05-29T16:56:41.704Z,0
2018-05-29T16:57:51.179Z,0
2018-05-29T16:59:00.143Z,0
2018-05-29T17:00:09.594Z,0
2018-05-29T17:01:19.074Z,0
2018-05-29T17:02:28.284Z,0
2018-05-29T17:03:38.033Z,0